Time;durP1;ratioP1;P1;durP2;ratioP2;P2;SDS_P1;SDS_P2;PMS_P1;PMS_P2;Temp;Humidity;BMP_temperature;BMP_pressure;BME280_temperature;BME280_humidity;BME280_pressure;Samples;Min_cycle;Max_cycle;Signal;HPM_P1;HPM_P2
2023/12/10 00:02:11;;;;;;;20.08;4.85;;;9.30;99.90;;;;;;4958717;28;20395;-53
2023/12/10 00:04:38;;;;;;;17.52;2.90;;;9.30;99.90;;;;;;4947156;29;20038;-51
2023/12/10 00:07:04;;;;;;;17.70;3.92;;;9.20;99.90;;;;;;4956194;28;20019;-52
2023/12/10 00:09:30;;;;;;;18.73;4.20;;;9.20;99.90;;;;;;4949367;28;20027;-52
2023/12/10 00:11:55;;;;;;;26.00;4.28;;;9.10;99.90;;;;;;4966130;28;20038;-47
2023/12/10 00:14:21;;;;;;;17.30;3.67;;;9.10;99.90;;;;;;4949431;28;20027;-47
2023/12/10 00:16:46;;;;;;;23.70;5.00;;;9.00;99.90;;;;;;4966711;28;20066;-52
2023/12/10 00:19:12;;;;;;;16.63;3.50;;;9.10;99.90;;;;;;4957064;28;20570;-49
2023/12/10 00:21:38;;;;;;;22.52;3.67;;;9.00;99.90;;;;;;4960313;28;20043;-51
2023/12/10 00:24:04;;;;;;;20.13;3.33;;;9.10;99.90;;;;;;4949872;28;20263;-48
2023/12/10 00:26:30;;;;;;;16.90;3.17;;;9.10;99.90;;;;;;4951326;28;20027;-54
2023/12/10 00:28:55;;;;;;;23.42;3.70;;;9.10;99.90;;;;;;4953345;29;20035;-50
2023/12/10 00:31:21;;;;;;;28.75;5.35;;;9.10;99.90;;;;;;4952279;29;20027;-52
2023/12/10 00:33:47;;;;;;;29.23;5.85;;;9.10;99.90;;;;;;4953119;29;20034;-55
2023/12/10 00:36:12;;;;;;;23.50;4.68;;;9.10;99.90;;;;;;4953010;29;20169;-56
2023/12/10 00:38:38;;;;;;;34.20;5.78;;;9.10;99.90;;;;;;4935817;29;20510;-51
2023/12/10 00:41:05;;;;;;;21.58;4.97;;;9.10;99.90;;;;;;4951602;29;20063;-50
2023/12/10 00:43:31;;;;;;;34.33;5.93;;;9.10;99.90;;;;;;4952668;29;20479;-54
2023/12/10 00:45:57;;;;;;;23.75;5.43;;;9.10;99.90;;;;;;4953787;28;20442;-59
2023/12/10 00:48:23;;;;;;;28.63;4.53;;;9.10;99.90;;;;;;4952676;29;20181;-56
2023/12/10 00:50:48;;;;;;;23.00;4.85;;;9.10;99.90;;;;;;4935656;29;20117;-57
2023/12/10 00:53:14;;;;;;;20.67;4.95;;;9.10;99.90;;;;;;4935453;29;20032;-57
2023/12/10 00:55:40;;;;;;;31.15;5.13;;;9.20;99.90;;;;;;4952994;29;20064;-56
2023/12/10 00:58:06;;;;;;;28.80;5.65;;;9.20;99.90;;;;;;4936060;28;20464;-59
2023/12/10 01:00:31;;;;;;;27.65;4.75;;;9.20;99.90;;;;;;4935454;29;20114;-60
2023/12/10 01:02:57;;;;;;;35.67;6.50;;;9.20;99.90;;;;;;4952726;29;20046;-50
2023/12/10 01:05:22;;;;;;;20.08;5.30;;;9.20;99.90;;;;;;4935600;29;20402;-53
2023/12/10 01:07:48;;;;;;;36.28;6.38;;;9.20;99.90;;;;;;4952634;29;20049;-53
2023/12/10 01:10:13;;;;;;;22.83;4.32;;;9.20;99.90;;;;;;4953247;29;20030;-53
2023/12/10 01:12:39;;;;;;;25.60;5.38;;;9.20;99.90;;;;;;4952586;29;20046;-55
2023/12/10 01:15:05;;;;;;;27.33;4.93;;;9.20;99.90;;;;;;4952631;29;20101;-57
2023/12/10 01:17:31;;;;;;;25.40;5.40;;;9.30;99.90;;;;;;4935253;28;20548;-59
2023/12/10 01:19:59;;;;;;;29.50;6.47;;;9.30;99.90;;;;;;4952438;28;20114;-59
2023/12/10 01:22:24;;;;;;;30.50;5.50;;;9.30;99.90;;;;;;4951898;29;20073;-55
2023/12/10 01:24:52;;;;;;;29.42;5.30;;;9.30;99.90;;;;;;4952638;29;20515;-58
2023/12/10 01:27:18;;;;;;;34.40;6.43;;;9.40;99.90;;;;;;4952402;29;20034;-56
2023/12/10 01:29:43;;;;;;;29.60;6.50;;;9.40;99.90;;;;;;4952327;28;20024;-59
2023/12/10 01:32:10;;;;;;;27.50;5.88;;;9.40;99.90;;;;;;4952112;28;20062;-55
2023/12/10 01:34:36;;;;;;;28.00;5.13;;;9.40;99.90;;;;;;4952080;29;20027;-60
2023/12/10 01:37:02;;;;;;;26.42;4.97;;;9.50;99.90;;;;;;4934765;28;20042;-58
2023/12/10 01:39:27;;;;;;;34.40;6.43;;;9.40;99.90;;;;;;4952095;29;20039;-57
2023/12/10 01:41:53;;;;;;;27.90;6.32;;;9.50;99.90;;;;;;4934410;29;20513;-59
2023/12/10 01:44:18;;;;;;;32.38;5.18;;;9.50;99.90;;;;;;4951937;29;20518;-58
2023/12/10 01:46:45;;;;;;;34.50;5.00;;;9.50;99.90;;;;;;4952267;29;20036;-58
2023/12/10 01:49:11;;;;;;;32.92;5.45;;;9.50;99.90;;;;;;4935246;29;20077;-57
2023/12/10 01:51:37;;;;;;;28.88;4.68;;;9.50;99.90;;;;;;4951919;28;20538;-58
2023/12/10 01:54:03;;;;;;;26.35;5.90;;;9.50;99.90;;;;;;4952001;28;20067;-58
2023/12/10 01:56:30;;;;;;;24.70;4.80;;;9.50;99.90;;;;;;4951857;28;20058;-52
2023/12/10 01:58:56;;;;;;;19.00;4.63;;;9.50;99.90;;;;;;4952126;28;20098;-49
2023/12/10 02:01:23;;;;;;;31.55;5.82;;;9.50;99.90;;;;;;4951429;28;20118;-53
2023/12/10 02:03:49;;;;;;;27.35;6.03;;;9.50;99.90;;;;;;4949505;29;20027;-55
2023/12/10 02:06:15;;;;;;;29.17;5.85;;;9.60;99.90;;;;;;4949120;28;20543;-51
2023/12/10 02:08:40;;;;;;;36.15;6.30;;;9.50;99.90;;;;;;4948752;29;20080;-57
2023/12/10 02:11:06;;;;;;;34.38;6.15;;;9.50;99.90;;;;;;4948513;29;20107;-53
2023/12/10 02:13:32;;;;;;;24.17;5.38;;;9.60;99.90;;;;;;4948296;29;20491;-53
2023/12/10 02:15:57;;;;;;;37.55;6.25;;;9.60;99.90;;;;;;4948570;28;20034;-55
2023/12/10 02:18:23;;;;;;;30.10;5.43;;;9.50;99.90;;;;;;4948667;29;20030;-55
2023/12/10 02:20:49;;;;;;;27.58;5.75;;;9.50;99.90;;;;;;4948373;29;20086;-56
2023/12/10 02:23:21;;;;;;;29.33;5.13;;;9.50;99.90;;;;;;4948636;29;20035;-55
2023/12/10 02:25:46;;;;;;;23.83;4.68;;;9.50;99.90;;;;;;4948647;28;20414;-54
2023/12/10 02:28:12;;;;;;;28.13;6.00;;;9.60;99.90;;;;;;4948746;29;20031;-54
2023/12/10 02:30:38;;;;;;;34.70;6.07;;;9.70;99.90;;;;;;4948322;28;20039;-57
2023/12/10 02:33:03;;;;;;;29.73;5.85;;;9.60;99.90;;;;;;4948226;29;20081;-56
2023/12/10 02:35:29;;;;;;;25.92;5.07;;;9.60;99.90;;;;;;4948191;29;20027;-55
2023/12/10 02:37:55;;;;;;;24.50;3.90;;;9.70;99.90;;;;;;4948470;29;20058;-55
2023/12/10 02:40:20;;;;;;;24.05;5.00;;;9.70;99.90;;;;;;4948312;29;20066;-55
2023/12/10 02:42:47;;;;;;;31.08;6.43;;;9.60;99.90;;;;;;4947905;29;20027;-58
2023/12/10 02:45:13;;;;;;;31.98;4.50;;;9.60;99.90;;;;;;4948058;28;20043;-54
2023/12/10 02:47:39;;;;;;;24.75;3.67;;;9.60;99.90;;;;;;4948323;28;20054;-53
2023/12/10 02:50:06;;;;;;;27.52;5.18;;;9.40;99.90;;;;;;4947543;28;20081;-58
2023/12/10 02:52:35;;;;;;;35.08;6.78;;;9.40;99.90;;;;;;4947714;29;20027;-57
2023/12/10 02:55:00;;;;;;;27.05;4.85;;;9.30;99.90;;;;;;4948110;28;20029;-51
2023/12/10 02:57:26;;;;;;;25.92;4.65;;;9.20;99.90;;;;;;4948452;29;20389;-53
2023/12/10 02:59:51;;;;;;;12.38;3.67;;;9.30;99.90;;;;;;4948929;29;20048;-53
2023/12/10 03:02:17;;;;;;;24.15;4.72;;;9.20;99.90;;;;;;4950236;29;20462;-55
2023/12/10 03:04:42;;;;;;;19.35;4.00;;;9.20;99.90;;;;;;4950868;29;20111;-55
2023/12/10 03:07:08;;;;;;;19.08;3.85;;;9.10;99.90;;;;;;4950978;29;20027;-55
2023/12/10 03:09:33;;;;;;;24.60;4.40;;;9.10;99.90;;;;;;4950790;29;20023;-52
2023/12/10 03:11:59;;;;;;;34.63;5.10;;;9.10;99.90;;;;;;4933232;29;20032;-58
2023/12/10 03:14:24;;;;;;;25.10;3.67;;;9.00;99.90;;;;;;4950628;29;20027;-51
2023/12/10 03:16:49;;;;;;;21.90;3.47;;;9.00;99.90;;;;;;4950607;29;20027;-52
2023/12/10 03:19:15;;;;;;;20.38;4.85;;;9.00;99.90;;;;;;4950654;29;20023;-56
2023/12/10 03:21:41;;;;;;;18.73;3.70;;;9.00;99.90;;;;;;4950211;29;20038;-53
2023/12/10 03:24:06;;;;;;;16.27;3.63;;;8.90;99.90;;;;;;4951510;29;20390;-59
2023/12/10 03:26:32;;;;;;;18.92;3.10;;;8.90;99.90;;;;;;4934044;29;20027;-58
2023/12/10 03:28:57;;;;;;;15.77;3.53;;;8.90;99.90;;;;;;4952239;29;20461;-59
2023/12/10 03:31:23;;;;;;;20.77;3.70;;;8.80;99.90;;;;;;4952248;29;20081;-54
2023/12/10 03:33:50;;;;;;;21.05;3.78;;;8.80;99.90;;;;;;4952027;29;20043;-59
2023/12/10 03:36:17;;;;;;;9.73;3.25;;;8.80;99.90;;;;;;4950828;28;20113;-53
2023/12/10 03:38:43;;;;;;;18.83;2.70;;;8.80;99.90;;;;;;4950544;28;20047;-55
2023/12/10 03:41:08;;;;;;;10.93;2.50;;;8.80;99.90;;;;;;4950211;29;20035;-57
2023/12/10 03:43:34;;;;;;;14.95;4.40;;;8.70;99.90;;;;;;4950370;29;20375;-54
2023/12/10 03:45:59;;;;;;;17.63;3.30;;;8.80;99.90;;;;;;4950261;29;20031;-55
2023/12/10 03:48:25;;;;;;;18.05;4.03;;;8.70;99.90;;;;;;4932901;29;20445;-54
2023/12/10 03:50:51;;;;;;;14.25;4.43;;;8.80;99.90;;;;;;4949930;29;20028;-56
2023/12/10 03:53:17;;;;;;;15.32;3.47;;;8.80;99.90;;;;;;4950011;29;20069;-58
2023/12/10 03:55:42;;;;;;;12.27;3.45;;;8.80;99.90;;;;;;4950192;28;20043;-54
2023/12/10 03:58:08;;;;;;;14.93;2.90;;;8.90;99.90;;;;;;4932959;29;20627;-55
2023/12/10 04:00:33;;;;;;;12.35;2.38;;;8.90;99.90;;;;;;4932812;29;20122;-53
2023/12/10 04:02:59;;;;;;;22.23;3.88;;;9.00;99.90;;;;;;4952965;29;20023;-54
2023/12/10 04:05:24;;;;;;;17.63;2.42;;;9.00;99.90;;;;;;4953487;29;20027;-53
2023/12/10 04:07:50;;;;;;;13.70;2.95;;;9.10;99.90;;;;;;4953580;29;20067;-51
2023/12/10 04:10:15;;;;;;;14.48;2.85;;;9.10;99.90;;;;;;4953454;29;20023;-49
2023/12/10 04:12:41;;;;;;;11.95;2.75;;;9.10;99.90;;;;;;4953141;29;20035;-55
2023/12/10 04:15:07;;;;;;;13.93;2.65;;;9.10;99.90;;;;;;4953580;29;20050;-57
2023/12/10 04:17:32;;;;;;;18.30;3.67;;;9.20;99.90;;;;;;4953527;29;20525;-59
2023/12/10 04:19:58;;;;;;;12.52;2.55;;;9.00;99.90;;;;;;4953332;29;20032;-55
2023/12/10 04:22:23;;;;;;;12.45;3.00;;;9.10;99.90;;;;;;4935802;29;20023;-52
2023/12/10 04:24:49;;;;;;;17.60;3.45;;;9.10;99.90;;;;;;4953537;29;20019;-52
2023/12/10 04:27:15;;;;;;;19.30;4.18;;;9.10;99.90;;;;;;4953342;29;20498;-54
2023/12/10 04:29:41;;;;;;;19.00;3.88;;;9.10;99.90;;;;;;4936111;29;20106;-55
2023/12/10 04:32:07;;;;;;;19.10;4.20;;;9.10;99.90;;;;;;4953057;29;20023;-56
2023/12/10 04:34:32;;;;;;;15.90;2.80;;;9.00;99.90;;;;;;4953258;29;20494;-57
2023/12/10 04:36:58;;;;;;;13.48;3.15;;;9.00;99.90;;;;;;4953234;29;20035;-56
2023/12/10 04:39:23;;;;;;;15.35;2.63;;;8.90;99.90;;;;;;4953243;29;20031;-58
2023/12/10 04:41:49;;;;;;;21.23;2.85;;;9.00;99.90;;;;;;4953200;29;20031;-55
2023/12/10 04:44:14;;;;;;;23.30;4.65;;;9.00;99.90;;;;;;4935933;29;20403;-57
2023/12/10 04:46:40;;;;;;;14.88;3.13;;;8.90;99.90;;;;;;4953402;29;20030;-57
2023/12/10 04:49:05;;;;;;;17.13;4.00;;;8.90;99.90;;;;;;4953408;28;20410;-56
2023/12/10 04:51:31;;;;;;;13.43;2.95;;;8.90;99.90;;;;;;4952901;29;20093;-56
2023/12/10 04:53:56;;;;;;;11.40;3.25;;;9.00;99.90;;;;;;4953055;29;20046;-53
2023/12/10 04:56:23;;;;;;;18.70;4.13;;;9.10;99.90;;;;;;4953356;29;20565;-48
2023/12/10 04:58:49;;;;;;;15.20;2.92;;;9.10;99.90;;;;;;4953139;28;20491;-56
2023/12/10 05:01:15;;;;;;;19.38;4.50;;;9.20;99.90;;;;;;4952510;29;20031;-53
2023/12/10 05:03:41;;;;;;;11.55;4.22;;;9.20;99.90;;;;;;4952390;29;20024;-56
2023/12/10 05:06:07;;;;;;;22.42;3.78;;;9.20;99.90;;;;;;4952836;29;20023;-58
2023/12/10 05:08:33;;;;;;;16.27;4.03;;;9.20;99.90;;;;;;4952676;29;20023;-53
2023/12/10 05:10:58;;;;;;;22.00;4.20;;;9.10;99.90;;;;;;4952676;29;20051;-55
2023/12/10 05:13:24;;;;;;;25.80;4.95;;;9.10;99.90;;;;;;4952112;29;20597;-53
2023/12/10 05:15:49;;;;;;;19.33;2.95;;;9.10;99.90;;;;;;4952362;29;20031;-55
2023/12/10 05:18:15;;;;;;;22.35;4.05;;;9.10;99.90;;;;;;4952523;29;20042;-55
2023/12/10 05:20:40;;;;;;;22.10;4.15;;;9.10;99.90;;;;;;4952395;29;20047;-54
2023/12/10 05:23:06;;;;;;;21.52;3.95;;;9.10;99.90;;;;;;4952578;29;20023;-52
2023/12/10 05:25:31;;;;;;;22.40;4.38;;;9.10;99.90;;;;;;4952443;29;20037;-53
2023/12/10 05:27:57;;;;;;;24.63;3.67;;;9.10;99.90;;;;;;4935551;29;20026;-56
2023/12/10 05:30:23;;;;;;;18.98;3.58;;;9.10;99.90;;;;;;4952340;28;20027;-58
2023/12/10 05:32:49;;;;;;;22.35;5.10;;;9.10;99.90;;;;;;4952163;29;20498;-57
2023/12/10 05:35:14;;;;;;;14.25;3.75;;;9.20;99.90;;;;;;4934964;29;20034;-54
2023/12/10 05:37:40;;;;;;;18.42;4.30;;;9.40;99.90;;;;;;4935054;29;20036;-57
2023/12/10 05:40:06;;;;;;;18.38;3.72;;;9.30;99.90;;;;;;4952174;29;20024;-52
2023/12/10 05:42:31;;;;;;;22.50;3.42;;;9.30;99.90;;;;;;4951916;28;20039;-53
2023/12/10 05:44:58;;;;;;;19.48;3.60;;;9.40;99.90;;;;;;4935063;29;20110;-52
2023/12/10 05:47:24;;;;;;;23.15;3.78;;;9.50;99.90;;;;;;4952236;29;20039;-59
2023/12/10 05:49:51;;;;;;;26.92;5.70;;;9.40;99.90;;;;;;4952268;28;20082;-54
2023/12/10 05:52:16;;;;;;;25.40;4.38;;;9.40;99.90;;;;;;4951803;28;20031;-55
2023/12/10 05:54:42;;;;;;;24.33;3.95;;;9.40;99.90;;;;;;4951955;29;20157;-51
2023/12/10 05:57:07;;;;;;;24.52;5.78;;;9.50;99.90;;;;;;4952018;29;20383;-54
2023/12/10 05:59:33;;;;;;;20.58;4.18;;;9.50;99.90;;;;;;4951888;29;20027;-56
2023/12/10 06:01:58;;;;;;;16.88;3.42;;;9.50;99.90;;;;;;4934563;29;20027;-55
2023/12/10 06:04:24;;;;;;;21.55;4.68;;;9.50;99.90;;;;;;4952594;29;20037;-55
2023/12/10 06:06:49;;;;;;;22.67;4.68;;;9.60;99.90;;;;;;4951966;29;20031;-55
2023/12/10 06:09:15;;;;;;;17.77;3.75;;;9.60;99.90;;;;;;4951805;29;20028;-55
2023/12/10 06:11:41;;;;;;;21.63;3.92;;;9.70;99.90;;;;;;4951594;29;20035;-58
2023/12/10 06:14:06;;;;;;;20.63;3.78;;;9.60;99.90;;;;;;4951570;28;20035;-53
2023/12/10 06:16:32;;;;;;;22.70;3.33;;;9.60;99.90;;;;;;4952117;29;20043;-56
2023/12/10 06:18:57;;;;;;;17.77;4.78;;;9.60;99.90;;;;;;4951685;29;20062;-55
2023/12/10 06:21:23;;;;;;;19.90;3.55;;;9.70;99.90;;;;;;4951447;29;20430;-54
2023/12/10 06:23:49;;;;;;;16.30;3.75;;;9.90;99.90;;;;;;4950552;29;20027;-53
2023/12/10 06:26:14;;;;;;;26.77;4.90;;;9.60;99.90;;;;;;4951434;29;20403;-53
2023/12/10 06:28:40;;;;;;;21.33;4.65;;;9.70;99.90;;;;;;4951338;29;20093;-53
2023/12/10 06:31:05;;;;;;;27.42;3.83;;;9.70;99.90;;;;;;4933881;29;20062;-57
2023/12/10 06:33:31;;;;;;;23.95;3.33;;;9.70;99.90;;;;;;4951009;29;20027;-53
2023/12/10 06:35:57;;;;;;;17.58;3.88;;;9.80;99.90;;;;;;4951211;29;20051;-53
2023/12/10 06:38:22;;;;;;;30.70;4.80;;;9.70;99.90;;;;;;4951295;29;20027;-52
2023/12/10 06:40:48;;;;;;;19.33;4.38;;;9.70;99.90;;;;;;4951113;29;20481;-56
2023/12/10 06:43:13;;;;;;;18.27;4.32;;;9.70;99.90;;;;;;4951071;29;20433;-55
2023/12/10 06:45:39;;;;;;;21.58;3.47;;;9.70;99.90;;;;;;4974694;22;20059;-45
2023/12/10 06:48:06;;;;;;;25.42;4.43;;;9.70;99.90;;;;;;4970194;28;20037;-45
2023/12/10 06:50:32;;;;;;;19.35;3.80;;;9.60;99.90;;;;;;4970107;28;20106;-42
2023/12/10 06:52:57;;;;;;;19.92;4.60;;;9.60;99.90;;;;;;4969829;28;20098;-44
2023/12/10 06:55:23;;;;;;;22.75;4.10;;;9.60;99.90;;;;;;4970078;28;20033;-46
2023/12/10 06:57:48;;;;;;;20.58;4.70;;;9.60;99.90;;;;;;4970498;28;20106;-45
2023/12/10 07:00:14;;;;;;;26.27;4.68;;;9.60;99.90;;;;;;4970358;28;20092;-44
2023/12/10 07:02:40;;;;;;;22.00;4.22;;;9.50;99.90;;;;;;4970046;28;20509;-42
2023/12/10 07:05:06;;;;;;;12.70;3.78;;;9.60;99.90;;;;;;4970042;28;20027;-43
2023/12/10 07:07:31;;;;;;;24.40;3.88;;;9.50;99.90;;;;;;4969990;28;20118;-44
2023/12/10 07:09:57;;;;;;;16.45;4.32;;;9.50;99.90;;;;;;4953416;28;20118;-43
2023/12/10 07:12:23;;;;;;;24.80;5.72;;;9.50;99.90;;;;;;4970399;28;20022;-42
2023/12/10 07:14:48;;;;;;;19.25;4.10;;;9.50;99.90;;;;;;4970232;28;20053;-45
2023/12/10 07:17:14;;;;;;;15.50;2.90;;;9.60;99.90;;;;;;4970151;28;20054;-43
2023/12/10 07:19:40;;;;;;;23.50;3.47;;;9.50;99.90;;;;;;4970000;28;20054;-43
2023/12/10 07:22:06;;;;;;;20.45;2.85;;;9.60;99.90;;;;;;4969492;28;20039;-44
2023/12/10 07:24:31;;;;;;;23.85;4.13;;;9.60;99.90;;;;;;4970011;28;20030;-47
2023/12/10 07:26:57;;;;;;;13.80;3.15;;;9.60;99.90;;;;;;4970117;28;20027;-43
2023/12/10 07:29:23;;;;;;;22.90;5.00;;;9.70;99.90;;;;;;4953035;28;20418;-45
2023/12/10 07:31:48;;;;;;;27.63;4.88;;;9.70;99.90;;;;;;4969607;28;20027;-43
2023/12/10 07:34:14;;;;;;;18.13;3.88;;;9.70;99.90;;;;;;4969662;28;20031;-49
2023/12/10 07:36:39;;;;;;;19.38;3.83;;;9.70;99.90;;;;;;4972576;28;20548;-46
2023/12/10 07:39:05;;;;;;;21.48;3.75;;;9.80;99.90;;;;;;4973211;28;20027;-44
2023/12/10 07:41:30;;;;;;;17.52;3.42;;;9.80;99.90;;;;;;4973122;28;20054;-51
2023/12/10 07:43:56;;;;;;;20.70;3.47;;;9.80;99.90;;;;;;4973224;28;20394;-43
2023/12/10 07:46:21;;;;;;;18.92;3.42;;;9.80;99.90;;;;;;4973222;28;20043;-45
2023/12/10 07:48:47;;;;;;;24.20;3.63;;;9.80;99.90;;;;;;4973293;28;20039;-45
2023/12/10 07:51:12;;;;;;;15.75;3.42;;;9.80;99.90;;;;;;4973061;28;20571;-49
2023/12/10 07:53:38;;;;;;;22.80;3.40;;;9.90;99.90;;;;;;4972986;28;20025;-45
2023/12/10 07:56:04;;;;;;;19.40;3.05;;;9.90;99.90;;;;;;4973147;28;20023;-43
2023/12/10 07:58:29;;;;;;;15.48;3.67;;;9.90;99.90;;;;;;4973761;28;20500;-45
2023/12/10 08:00:56;;;;;;;20.58;3.83;;;9.90;99.90;;;;;;4973159;28;20437;-42
2023/12/10 08:03:21;;;;;;;21.50;4.93;;;10.00;99.90;;;;;;4972804;28;20039;-43
2023/12/10 08:05:47;;;;;;;24.23;6.05;;;10.00;99.90;;;;;;4972807;28;20045;-45
2023/12/10 08:08:12;;;;;;;16.90;4.00;;;10.00;99.90;;;;;;4972898;28;20104;-46
2023/12/10 08:10:38;;;;;;;20.67;3.92;;;10.00;99.90;;;;;;4972827;28;20023;-45
2023/12/10 08:13:03;;;;;;;21.65;2.88;;;10.00;99.90;;;;;;4972509;28;20466;-43
2023/12/10 08:15:29;;;;;;;24.52;2.55;;;10.00;99.90;;;;;;4972739;28;20398;-43
2023/12/10 08:17:55;;;;;;;27.02;4.82;;;10.00;99.90;;;;;;4972412;28;20109;-44
2023/12/10 08:20:20;;;;;;;21.75;3.20;;;10.00;99.90;;;;;;4972733;28;20062;-43
2023/12/10 08:22:48;;;;;;;24.02;3.80;;;10.00;99.90;;;;;;4972621;28;20039;-44
2023/12/10 08:25:13;;;;;;;14.73;4.20;;;10.00;99.90;;;;;;4972579;28;20019;-46
2023/12/10 08:27:39;;;;;;;25.38;3.88;;;10.00;99.90;;;;;;4972566;28;20492;-39
2023/12/10 08:30:05;;;;;;;17.42;4.07;;;10.00;99.90;;;;;;4972504;28;20019;-43
2023/12/10 08:32:30;;;;;;;19.85;3.95;;;10.10;99.90;;;;;;4972071;28;20452;-46
2023/12/10 08:34:56;;;;;;;16.65;3.40;;;10.10;99.90;;;;;;4972428;28;20081;-44
2023/12/10 08:37:21;;;;;;;20.60;2.95;;;10.10;99.90;;;;;;4972780;28;20066;-43
2023/12/10 08:39:49;;;;;;;27.88;4.03;;;10.20;99.90;;;;;;4972691;28;20096;-43
2023/12/10 08:42:15;;;;;;;27.33;4.57;;;10.30;99.90;;;;;;4972641;28;20023;-43
2023/12/10 08:44:40;;;;;;;22.60;3.38;;;10.20;99.90;;;;;;4972256;28;20031;-48
2023/12/10 08:47:06;;;;;;;18.33;3.72;;;10.30;99.90;;;;;;4954090;28;20055;-43
2023/12/10 08:49:31;;;;;;;17.33;4.68;;;10.60;99.90;;;;;;4972698;28;20448;-42
2023/12/10 08:51:57;;;;;;;13.95;2.88;;;10.70;99.90;;;;;;4972354;28;20045;-44
2023/12/10 08:54:22;;;;;;;24.30;3.75;;;11.10;99.90;;;;;;4972355;28;20478;-48
2023/12/10 08:56:48;;;;;;;19.35;4.32;;;11.60;99.90;;;;;;4972109;28;20092;-44
2023/12/10 08:59:13;;;;;;;7.50;3.42;;;12.00;99.90;;;;;;4972206;28;20398;-45
2023/12/10 09:01:39;;;;;;;20.17;3.38;;;12.20;99.90;;;;;;4971767;28;20114;-46
2023/12/10 09:04:05;;;;;;;12.13;3.17;;;12.50;99.90;;;;;;4972155;28;20499;-49
2023/12/10 09:06:31;;;;;;;11.77;2.78;;;12.70;99.90;;;;;;4954664;28;20029;-48
2023/12/10 09:08:57;;;;;;;10.27;3.00;;;12.80;99.90;;;;;;4972149;28;20426;-44
2023/12/10 09:11:22;;;;;;;10.95;3.40;;;13.00;99.90;;;;;;4971991;28;20027;-46
2023/12/10 09:13:48;;;;;;;8.60;2.80;;;12.70;99.90;;;;;;4971639;28;20026;-45
2023/12/10 09:16:15;;;;;;;13.65;3.20;;;12.20;99.90;;;;;;4971920;28;20114;-45
2023/12/10 09:18:40;;;;;;;24.02;3.53;;;12.00;99.90;;;;;;4971506;28;20030;-43
2023/12/10 09:21:07;;;;;;;19.38;4.13;;;11.60;99.90;;;;;;4971431;28;20035;-46
2023/12/10 09:23:34;;;;;;;16.88;3.95;;;11.50;99.90;;;;;;4971589;28;20019;-44
2023/12/10 09:26:00;;;;;;;16.30;3.17;;;11.50;99.90;;;;;;4972388;28;20023;-46
2023/12/10 09:28:25;;;;;;;13.40;4.53;;;11.50;99.90;;;;;;4971806;28;20109;-45
2023/12/10 09:30:51;;;;;;;12.85;2.85;;;11.50;99.90;;;;;;4972419;28;20019;-48
2023/12/10 09:33:17;;;;;;;12.95;2.22;;;11.50;99.90;;;;;;4971832;28;20027;-42
2023/12/10 09:35:42;;;;;;;15.57;3.05;;;11.40;99.90;;;;;;4971378;28;20019;-45
2023/12/10 09:38:08;;;;;;;18.70;5.05;;;11.20;99.90;;;;;;4971673;28;20038;-48
2023/12/10 09:40:34;;;;;;;13.70;3.53;;;11.10;99.90;;;;;;4971250;28;20033;-43
2023/12/10 09:43:01;;;;;;;13.68;3.00;;;11.10;99.90;;;;;;4970844;28;20038;-45
2023/12/10 09:45:26;;;;;;;18.95;3.63;;;11.00;99.90;;;;;;4971121;28;20046;-47
2023/12/10 09:47:52;;;;;;;21.42;4.32;;;10.90;99.90;;;;;;4971742;28;20023;-44
2023/12/10 09:50:21;;;;;;;19.38;3.10;;;11.00;99.90;;;;;;4971206;28;20069;-43
2023/12/10 09:52:47;;;;;;;14.75;3.20;;;11.00;99.90;;;;;;4955033;28;20023;-46
2023/12/10 09:55:13;;;;;;;23.20;3.38;;;11.00;99.90;;;;;;4952015;29;20032;-49
2023/12/10 09:57:39;;;;;;;19.55;2.70;;;11.30;99.90;;;;;;4959465;28;20027;-44
2023/12/10 10:00:06;;;;;;;15.18;3.25;;;11.40;99.90;;;;;;4969917;28;20100;-43
2023/12/10 10:02:35;;;;;;;21.20;2.55;;;11.50;99.90;;;;;;4965102;28;20065;-48
2023/12/10 10:05:03;;;;;;;21.00;3.75;;;11.50;99.90;;;;;;4953302;28;20027;-44
2023/12/10 10:07:29;;;;;;;13.18;3.35;;;11.70;99.90;;;;;;4951558;29;20015;-43
2023/12/10 10:09:55;;;;;;;16.67;3.28;;;11.60;99.90;;;;;;4951599;29;20069;-46
2023/12/10 10:12:20;;;;;;;21.85;4.90;;;11.70;99.90;;;;;;4951387;29;20040;-44
2023/12/10 10:14:57;;;;;;;19.02;3.28;;;11.70;99.90;;;;;;4951678;29;20023;-48
2023/12/10 10:17:35;;;;;;;18.52;4.43;;;11.70;99.90;;;;;;4951337;28;20027;-44
2023/12/10 10:20:04;;;;;;;20.27;3.78;;;11.60;99.90;;;;;;4955651;28;20027;-46
2023/12/10 10:22:30;;;;;;;17.70;2.88;;;11.60;99.90;;;;;;4951319;28;20085;-44
2023/12/10 10:24:56;;;;;;;18.85;4.15;;;11.50;99.90;;;;;;4951577;28;20023;-46
2023/12/10 10:27:22;;;;;;;18.15;3.28;;;11.50;99.90;;;;;;4951712;28;20031;-43
2023/12/10 10:29:53;;;;;;;16.58;4.15;;;11.50;99.90;;;;;;4965266;28;20518;-48
2023/12/10 10:32:19;;;;;;;14.48;3.28;;;11.80;99.90;;;;;;4967080;28;20118;-48
2023/12/10 10:34:46;;;;;;;15.63;3.20;;;12.20;99.90;;;;;;4959835;28;20068;-48
2023/12/10 10:37:12;;;;;;;17.00;3.53;;;12.60;99.90;;;;;;4955209;28;20380;-48
2023/12/10 10:39:38;;;;;;;12.45;3.42;;;12.70;99.90;;;;;;4953097;28;20023;-47
2023/12/10 10:42:08;;;;;;;15.38;3.72;;;12.90;99.90;;;;;;4960379;28;20058;-46
2023/12/10 10:44:41;;;;;;;16.60;3.15;;;12.90;99.90;;;;;;4951148;29;20110;-45
2023/12/10 10:47:07;;;;;;;11.68;4.18;;;12.90;99.90;;;;;;4962573;28;20023;-46
2023/12/10 10:49:38;;;;;;;19.98;3.30;;;12.90;99.90;;;;;;4970326;28;20034;-47
2023/12/10 10:52:08;;;;;;;17.20;3.03;;;13.00;99.90;;;;;;4970258;28;20495;-49
2023/12/10 10:54:35;;;;;;;21.38;3.33;;;13.00;99.90;;;;;;4970227;28;20039;-45
2023/12/10 10:57:01;;;;;;;16.15;3.40;;;12.80;99.90;;;;;;4970321;28;20474;-47
2023/12/10 10:59:31;;;;;;;22.02;3.13;;;12.60;99.90;;;;;;4957698;28;20039;-48
2023/12/10 11:02:07;;;;;;;16.75;2.72;;;12.30;99.90;;;;;;4951026;28;20095;-48
2023/12/10 11:04:38;;;;;;;18.70;4.35;;;12.20;99.90;;;;;;4952085;28;20024;-45
2023/12/10 11:07:07;;;;;;;14.90;3.22;;;11.90;99.90;;;;;;4952198;28;20087;-46
2023/12/10 11:10:00;;;;;;;16.48;3.70;;;11.80;99.90;;;;;;4961307;28;20073;-51
2023/12/10 11:12:57;;;;;;;14.57;3.40;;;11.80;99.90;;;;;;4950678;29;20062;-46
2023/12/10 11:15:25;;;;;;;12.88;4.43;;;11.80;99.90;;;;;;4951708;29;20448;-46
2023/12/10 11:18:01;;;;;;;14.77;3.67;;;11.90;99.90;;;;;;4950860;29;20051;-45
2023/12/10 11:20:30;;;;;;;14.88;2.95;;;12.00;99.90;;;;;;4950702;29;20024;-49
2023/12/10 11:22:56;;;;;;;12.00;2.70;;;12.10;99.90;;;;;;4950373;29;20027;-46
2023/12/10 11:25:22;;;;;;;20.13;3.75;;;12.10;99.90;;;;;;4952701;28;20291;-47
2023/12/10 11:27:47;;;;;;;17.38;3.78;;;12.10;99.90;;;;;;4969988;28;20031;-48
2023/12/10 11:30:13;;;;;;;21.08;4.07;;;12.00;99.90;;;;;;4969816;28;20034;-49
2023/12/10 11:32:38;;;;;;;12.40;2.67;;;12.00;99.90;;;;;;4947836;29;20076;-50
2023/12/10 11:35:04;;;;;;;18.02;4.43;;;11.90;99.90;;;;;;4950812;29;20055;-50
2023/12/10 11:37:30;;;;;;;21.58;4.20;;;11.80;99.90;;;;;;4950575;29;20042;-49
2023/12/10 11:39:55;;;;;;;18.38;3.92;;;11.80;99.90;;;;;;4950642;29;20035;-52
2023/12/10 11:42:21;;;;;;;18.08;3.00;;;11.70;99.90;;;;;;4954703;28;20057;-49
2023/12/10 11:44:46;;;;;;;17.33;3.58;;;11.60;99.90;;;;;;4970964;28;20085;-51
2023/12/10 11:47:12;;;;;;;17.52;3.35;;;11.60;99.90;;;;;;4970976;28;20482;-51
2023/12/10 11:49:37;;;;;;;15.32;2.95;;;11.50;99.90;;;;;;5036929;28;20031;-50
2023/12/10 11:52:03;;;;;;;13.88;2.72;;;11.50;99.90;;;;;;4969730;28;20106;-55
2023/12/10 11:54:30;;;;;;;15.98;3.47;;;11.40;99.90;;;;;;4952507;28;20062;-47
2023/12/10 11:56:55;;;;;;;35.17;5.53;;;11.40;99.90;;;;;;4950910;29;20114;-51
2023/12/10 11:59:21;;;;;;;13.20;3.38;;;11.30;99.90;;;;;;4950700;29;20583;-49
2023/12/10 12:01:48;;;;;;;16.52;3.80;;;11.30;99.90;;;;;;4951615;28;20031;-47
2023/12/10 12:04:14;;;;;;;14.20;3.97;;;11.30;99.90;;;;;;4958868;28;20023;-42
2023/12/10 12:06:41;;;;;;;14.35;2.95;;;11.40;99.90;;;;;;4946075;28;20547;-48
2023/12/10 12:09:08;;;;;;;18.42;3.10;;;11.50;99.90;;;;;;4966986;28;20032;-51
2023/12/10 12:11:33;;;;;;;15.35;2.97;;;11.50;99.90;;;;;;4969144;28;20548;-55
2023/12/10 12:14:01;;;;;;;16.67;3.42;;;11.50;99.90;;;;;;4969585;28;20099;-52
2023/12/10 12:16:26;;;;;;;14.80;2.97;;;11.50;99.90;;;;;;4967079;28;20069;-48
2023/12/10 12:18:52;;;;;;;16.85;4.13;;;11.50;99.90;;;;;;4949761;29;20569;-52
2023/12/10 12:21:17;;;;;;;17.83;3.08;;;11.50;99.90;;;;;;4963376;28;20070;-43
2023/12/10 12:23:43;;;;;;;22.27;3.47;;;11.50;99.90;;;;;;4952766;29;20054;-50
2023/12/10 12:26:08;;;;;;;24.63;3.97;;;11.50;99.90;;;;;;4954344;28;20023;-47
2023/12/10 12:28:34;;;;;;;16.00;3.15;;;11.50;99.90;;;;;;4936444;28;20149;-46
2023/12/10 12:30:59;;;;;;;11.32;3.17;;;11.50;99.90;;;;;;4952888;29;20087;-47
2023/12/10 12:33:25;;;;;;;15.88;3.15;;;11.50;99.90;;;;;;4954097;28;20046;-48
2023/12/10 12:35:50;;;;;;;20.17;3.53;;;11.40;99.90;;;;;;4952919;29;20031;-44
2023/12/10 12:38:16;;;;;;;14.30;3.35;;;11.50;99.90;;;;;;4953860;29;20440;-47